Terminal Aerodrome Forecast
Issued by NWS

Home | Current Version | Previous Version | Text Only | Print | Product List | Glossary On
Versions: 1 2 3 4 5 6 7 8 9 10 11 12
000
FTUS42 KGSP 262333
TAFHKY
TAF
KHKY 262333Z 2700/2724 VRB03KT P6SM FEW050 SCT100
     FM271100 00000KT 6SM BR SCT090
     FM271300 19006KT P6SM SCT045
     FM271900 19006KT P6SM SCT045 PROB30 2719/2724 4SM TSRA
      BKN040CB=

USA.gov is the U.S. government's official web portal to all federal, state and local government web resources and services.